sensor_id;sensor_type;location;lat;lon;timestamp;pressure;altitude;pressure_sealevel;temperature;humidity
26531;BME280;14201;43.188;24.160;2023-04-20T00:02:14;99279.72;;;11.74;88.45
26531;BME280;14201;43.188;24.160;2023-04-20T00:04:40;99277.16;;;11.76;88.33
26531;BME280;14201;43.188;24.160;2023-04-20T00:07:05;99281.41;;;11.72;89.00
26531;BME280;14201;43.188;24.160;2023-04-20T00:09:31;99284.06;;;11.74;88.96
26531;BME280;14201;43.188;24.160;2023-04-20T00:11:57;99283.06;;;11.70;88.68
26531;BME280;14201;43.188;24.160;2023-04-20T00:14:22;99273.53;;;11.43;90.30
26531;BME280;14201;43.188;24.160;2023-04-20T00:16:48;99261.31;;;11.15;91.75
26531;BME280;14201;43.188;24.160;2023-04-20T00:19:13;99268.75;;;11.04;92.90
26531;BME280;14201;43.188;24.160;2023-04-20T00:21:38;99267.34;;;10.89;93.32
26531;BME280;14201;43.188;24.160;2023-04-20T00:24:04;99260.72;;;10.73;95.22
26531;BME280;14201;43.188;24.160;2023-04-20T00:26:30;99258.09;;;10.49;97.72
26531;BME280;14201;43.188;24.160;2023-04-20T00:28:55;99269.88;;;10.39;98.54
26531;BME280;14201;43.188;24.160;2023-04-20T00:31:20;99263.59;;;10.56;98.15
26531;BME280;14201;43.188;24.160;2023-04-20T00:33:46;99256.56;;;10.78;96.12
26531;BME280;14201;43.188;24.160;2023-04-20T00:36:13;99259.66;;;10.93;94.76
26531;BME280;14201;43.188;24.160;2023-04-20T00:38:38;99249.56;;;11.02;95.11
26531;BME280;14201;43.188;24.160;2023-04-20T00:41:04;99252.91;;;10.98;93.99
26531;BME280;14201;43.188;24.160;2023-04-20T00:43:29;99253.03;;;11.01;93.94
26531;BME280;14201;43.188;24.160;2023-04-20T00:45:55;99251.69;;;11.13;93.34
26531;BME280;14201;43.188;24.160;2023-04-20T00:48:20;99253.81;;;11.26;92.97
26531;BME280;14201;43.188;24.160;2023-04-20T00:50:46;99249.41;;;11.23;92.95
26531;BME280;14201;43.188;24.160;2023-04-20T00:53:13;99247.06;;;11.31;92.38
26531;BME280;14201;43.188;24.160;2023-04-20T00:55:38;99238.25;;;11.28;92.72
26531;BME280;14201;43.188;24.160;2023-04-20T00:58:05;99240.78;;;11.25;92.50
26531;BME280;14201;43.188;24.160;2023-04-20T01:00:31;99242.09;;;11.39;91.94
26531;BME280;14201;43.188;24.160;2023-04-20T01:02:57;99248.00;;;11.33;92.03
26531;BME280;14201;43.188;24.160;2023-04-20T01:05:22;99245.09;;;11.51;90.85
26531;BME280;14201;43.188;24.160;2023-04-20T01:07:48;99250.09;;;11.45;90.86
26531;BME280;14201;43.188;24.160;2023-04-20T01:10:14;99242.78;;;11.33;90.61
26531;BME280;14201;43.188;24.160;2023-04-20T01:12:39;99244.34;;;11.28;90.77
26531;BME280;14201;43.188;24.160;2023-04-20T01:15:05;99247.91;;;11.30;89.59
26531;BME280;14201;43.188;24.160;2023-04-20T01:17:31;99242.31;;;11.19;90.37
26531;BME280;14201;43.188;24.160;2023-04-20T01:19:57;99247.72;;;11.26;90.36
26531;BME280;14201;43.188;24.160;2023-04-20T01:22:24;99243.31;;;11.23;90.76
26531;BME280;14201;43.188;24.160;2023-04-20T01:24:50;99244.34;;;11.02;91.20
26531;BME280;14201;43.188;24.160;2023-04-20T01:27:15;99238.78;;;10.92;91.88
26531;BME280;14201;43.188;24.160;2023-04-20T01:29:41;99246.81;;;10.98;92.72
26531;BME280;14201;43.188;24.160;2023-04-20T01:32:06;99246.63;;;10.93;91.83
26531;BME280;14201;43.188;24.160;2023-04-20T01:34:32;99248.78;;;10.79;92.42
26531;BME280;14201;43.188;24.160;2023-04-20T01:36:58;99243.28;;;10.72;93.31
26531;BME280;14201;43.188;24.160;2023-04-20T01:39:23;99243.03;;;10.40;93.68
26531;BME280;14201;43.188;24.160;2023-04-20T01:41:49;99249.31;;;10.22;96.08
26531;BME280;14201;43.188;24.160;2023-04-20T01:44:14;99248.13;;;10.37;95.61
26531;BME280;14201;43.188;24.160;2023-04-20T01:46:40;99234.19;;;10.12;97.02
26531;BME280;14201;43.188;24.160;2023-04-20T01:49:05;99234.69;;;10.26;96.33
26531;BME280;14201;43.188;24.160;2023-04-20T01:51:31;99235.56;;;10.27;96.34
26531;BME280;14201;43.188;24.160;2023-04-20T01:53:57;99237.91;;;10.19;97.05
26531;BME280;14201;43.188;24.160;2023-04-20T01:56:23;99238.91;;;10.45;95.43
26531;BME280;14201;43.188;24.160;2023-04-20T01:58:48;99235.78;;;10.55;94.51
26531;BME280;14201;43.188;24.160;2023-04-20T02:01:14;99237.38;;;10.52;93.00
26531;BME280;14201;43.188;24.160;2023-04-20T02:03:39;99238.06;;;10.46;93.21
26531;BME280;14201;43.188;24.160;2023-04-20T02:06:04;99237.00;;;10.41;93.34
26531;BME280;14201;43.188;24.160;2023-04-20T02:08:31;99224.78;;;10.16;93.71
26531;BME280;14201;43.188;24.160;2023-04-20T02:10:56;99229.72;;;9.85;96.37
26531;BME280;14201;43.188;24.160;2023-04-20T02:13:22;99228.28;;;9.71;96.83
26531;BME280;14201;43.188;24.160;2023-04-20T02:15:47;99226.34;;;9.65;97.33
26531;BME280;14201;43.188;24.160;2023-04-20T02:18:13;99221.09;;;9.64;97.42
26531;BME280;14201;43.188;24.160;2023-04-20T02:20:39;99225.97;;;9.56;98.85
26531;BME280;14201;43.188;24.160;2023-04-20T02:23:05;99206.06;;;9.57;98.12
26531;BME280;14201;43.188;24.160;2023-04-20T02:25:31;99219.44;;;9.66;97.76
26531;BME280;14201;43.188;24.160;2023-04-20T02:27:56;99232.22;;;9.61;97.80
26531;BME280;14201;43.188;24.160;2023-04-20T02:30:22;99218.28;;;9.59;97.51
26531;BME280;14201;43.188;24.160;2023-04-20T02:32:47;99225.91;;;9.55;97.50
26531;BME280;14201;43.188;24.160;2023-04-20T02:35:13;99221.59;;;9.55;97.71
26531;BME280;14201;43.188;24.160;2023-04-20T02:37:38;99227.41;;;9.48;98.25
26531;BME280;14201;43.188;24.160;2023-04-20T02:40:05;99226.38;;;9.44;98.54
26531;BME280;14201;43.188;24.160;2023-04-20T02:42:31;99220.59;;;9.52;97.09
26531;BME280;14201;43.188;24.160;2023-04-20T02:44:57;99223.25;;;9.53;96.21
26531;BME280;14201;43.188;24.160;2023-04-20T02:47:22;99224.59;;;9.43;96.41
26531;BME280;14201;43.188;24.160;2023-04-20T02:49:48;99221.06;;;9.41;96.96
26531;BME280;14201;43.188;24.160;2023-04-20T02:52:13;99223.59;;;9.40;96.93
26531;BME280;14201;43.188;24.160;2023-04-20T02:54:39;99217.28;;;9.33;97.28
26531;BME280;14201;43.188;24.160;2023-04-20T02:57:05;99217.97;;;9.29;98.08
26531;BME280;14201;43.188;24.160;2023-04-20T02:59:31;99223.50;;;9.16;99.80
26531;BME280;14201;43.188;24.160;2023-04-20T03:01:56;99220.56;;;9.29;100.00
26531;BME280;14201;43.188;24.160;2023-04-20T03:04:22;99224.81;;;9.27;100.00
26531;BME280;14201;43.188;24.160;2023-04-20T03:06:51;99228.88;;;9.20;100.00
26531;BME280;14201;43.188;24.160;2023-04-20T03:09:18;99228.78;;;9.19;100.00
26531;BME280;14201;43.188;24.160;2023-04-20T03:11:44;99225.63;;;9.26;100.00
26531;BME280;14201;43.188;24.160;2023-04-20T03:14:09;99230.09;;;9.29;100.00
26531;BME280;14201;43.188;24.160;2023-04-20T03:16:35;99221.84;;;9.18;100.00
26531;BME280;14201;43.188;24.160;2023-04-20T03:19:01;99216.91;;;9.03;100.00
26531;BME280;14201;43.188;24.160;2023-04-20T03:21:27;99227.19;;;9.21;100.00
26531;BME280;14201;43.188;24.160;2023-04-20T03:23:53;99210.00;;;9.03;100.00
26531;BME280;14201;43.188;24.160;2023-04-20T03:26:18;99229.16;;;9.05;100.00
26531;BME280;14201;43.188;24.160;2023-04-20T03:28:44;99226.19;;;9.19;100.00
26531;BME280;14201;43.188;24.160;2023-04-20T03:31:10;99234.38;;;9.28;100.00
26531;BME280;14201;43.188;24.160;2023-04-20T03:33:35;99237.44;;;9.18;100.00
26531;BME280;14201;43.188;24.160;2023-04-20T03:36:01;99229.56;;;9.16;100.00
26531;BME280;14201;43.188;24.160;2023-04-20T03:38:27;99232.88;;;9.12;100.00
26531;BME280;14201;43.188;24.160;2023-04-20T03:40:53;99228.22;;;9.26;100.00
26531;BME280;14201;43.188;24.160;2023-04-20T03:43:18;99230.59;;;9.20;100.00
26531;BME280;14201;43.188;24.160;2023-04-20T03:45:44;99228.94;;;9.22;100.00
26531;BME280;14201;43.188;24.160;2023-04-20T03:48:09;99235.91;;;9.23;100.00
26531;BME280;14201;43.188;24.160;2023-04-20T03:50:35;99237.56;;;9.21;100.00
26531;BME280;14201;43.188;24.160;2023-04-20T03:53:00;99235.22;;;9.27;100.00
26531;BME280;14201;43.188;24.160;2023-04-20T03:55:26;99241.47;;;9.32;100.00
26531;BME280;14201;43.188;24.160;2023-04-20T03:57:52;99245.16;;;9.37;100.00
26531;BME280;14201;43.188;24.160;2023-04-20T04:00:19;99225.94;;;9.34;100.00
26531;BME280;14201;43.188;24.160;2023-04-20T04:02:44;99242.06;;;9.46;100.00
26531;BME280;14201;43.188;24.160;2023-04-20T04:05:10;99242.22;;;9.51;100.00
26531;BME280;14201;43.188;24.160;2023-04-20T04:07:36;99226.72;;;9.54;100.00
26531;BME280;14201;43.188;24.160;2023-04-20T04:10:01;99248.03;;;9.66;100.00
26531;BME280;14201;43.188;24.160;2023-04-20T04:12:29;99258.44;;;9.66;100.00
26531;BME280;14201;43.188;24.160;2023-04-20T04:14:54;99265.66;;;9.73;100.00
26531;BME280;14201;43.188;24.160;2023-04-20T04:17:23;99247.84;;;9.84;100.00
26531;BME280;14201;43.188;24.160;2023-04-20T04:19:48;99261.94;;;9.89;100.00
26531;BME280;14201;43.188;24.160;2023-04-20T04:22:14;99260.94;;;9.85;100.00
26531;BME280;14201;43.188;24.160;2023-04-20T04:24:39;99262.22;;;9.97;100.00
26531;BME280;14201;43.188;24.160;2023-04-20T04:27:06;99254.53;;;10.00;100.00
26531;BME280;14201;43.188;24.160;2023-04-20T04:29:32;99262.63;;;10.08;100.00
26531;BME280;14201;43.188;24.160;2023-04-20T04:32:03;99265.84;;;10.00;100.00
26531;BME280;14201;43.188;24.160;2023-04-20T04:34:30;99261.63;;;10.04;100.00
26531;BME280;14201;43.188;24.160;2023-04-20T04:36:56;99262.34;;;10.00;100.00
26531;BME280;14201;43.188;24.160;2023-04-20T04:39:26;99260.25;;;10.14;100.00
26531;BME280;14201;43.188;24.160;2023-04-20T04:41:52;99255.81;;;10.11;100.00
26531;BME280;14201;43.188;24.160;2023-04-20T04:44:17;99260.22;;;10.12;100.00
26531;BME280;14201;43.188;24.160;2023-04-20T04:46:43;99267.53;;;10.22;100.00
26531;BME280;14201;43.188;24.160;2023-04-20T04:49:10;99264.16;;;10.25;100.00
26531;BME280;14201;43.188;24.160;2023-04-20T04:51:35;99271.47;;;10.34;100.00
26531;BME280;14201;43.188;24.160;2023-04-20T04:54:01;99270.81;;;10.39;100.00
26531;BME280;14201;43.188;24.160;2023-04-20T04:56:27;99248.72;;;10.30;100.00
26531;BME280;14201;43.188;24.160;2023-04-20T04:58:53;99269.66;;;10.33;100.00
26531;BME280;14201;43.188;24.160;2023-04-20T05:01:19;99274.34;;;10.41;100.00
26531;BME280;14201;43.188;24.160;2023-04-20T05:03:45;99268.84;;;10.34;100.00
26531;BME280;14201;43.188;24.160;2023-04-20T05:06:11;99271.13;;;10.49;100.00
26531;BME280;14201;43.188;24.160;2023-04-20T05:08:36;99270.03;;;10.42;100.00
26531;BME280;14201;43.188;24.160;2023-04-20T05:11:02;99260.19;;;10.35;100.00
26531;BME280;14201;43.188;24.160;2023-04-20T05:13:27;99267.34;;;10.40;100.00
26531;BME280;14201;43.188;24.160;2023-04-20T05:15:53;99271.91;;;10.46;100.00
26531;BME280;14201;43.188;24.160;2023-04-20T05:18:19;99279.91;;;10.51;100.00
26531;BME280;14201;43.188;24.160;2023-04-20T05:20:44;99272.31;;;10.57;100.00
26531;BME280;14201;43.188;24.160;2023-04-20T05:23:10;99246.63;;;10.68;100.00
26531;BME280;14201;43.188;24.160;2023-04-20T05:25:36;99258.84;;;10.69;100.00
26531;BME280;14201;43.188;24.160;2023-04-20T05:28:02;99274.06;;;10.82;100.00
26531;BME280;14201;43.188;24.160;2023-04-20T05:30:27;99273.66;;;10.95;100.00
26531;BME280;14201;43.188;24.160;2023-04-20T05:32:53;99282.31;;;10.94;100.00
26531;BME280;14201;43.188;24.160;2023-04-20T05:35:19;99281.84;;;11.06;100.00
26531;BME280;14201;43.188;24.160;2023-04-20T05:37:45;99280.28;;;11.11;99.87
26531;BME280;14201;43.188;24.160;2023-04-20T05:40:11;99283.34;;;11.25;98.15
26531;BME280;14201;43.188;24.160;2023-04-20T05:42:37;99283.00;;;11.40;98.22
26531;BME280;14201;43.188;24.160;2023-04-20T05:45:03;99290.22;;;11.49;96.92
26531;BME280;14201;43.188;24.160;2023-04-20T05:47:29;99282.53;;;11.53;96.64
26531;BME280;14201;43.188;24.160;2023-04-20T05:49:55;99295.94;;;11.64;95.44
26531;BME280;14201;43.188;24.160;2023-04-20T05:52:21;99284.41;;;11.85;95.81
26531;BME280;14201;43.188;24.160;2023-04-20T05:54:46;99292.53;;;11.92;94.61
26531;BME280;14201;43.188;24.160;2023-04-20T05:57:13;99293.19;;;11.88;95.43
26531;BME280;14201;43.188;24.160;2023-04-20T05:59:38;99302.97;;;11.94;96.79
26531;BME280;14201;43.188;24.160;2023-04-20T06:02:04;99292.13;;;12.09;95.81
26531;BME280;14201;43.188;24.160;2023-04-20T06:04:30;99296.72;;;12.16;95.50
26531;BME280;14201;43.188;24.160;2023-04-20T06:06:56;99299.69;;;12.28;93.14
26531;BME280;14201;43.188;24.160;2023-04-20T06:09:22;99300.25;;;12.47;90.86
26531;BME280;14201;43.188;24.160;2023-04-20T06:11:47;99302.28;;;12.57;89.11
26531;BME280;14201;43.188;24.160;2023-04-20T06:14:13;99303.91;;;12.53;89.30
26531;BME280;14201;43.188;24.160;2023-04-20T06:16:39;99311.19;;;12.65;87.29
26531;BME280;14201;43.188;24.160;2023-04-20T06:19:05;99311.16;;;12.33;88.62
26531;BME280;14201;43.188;24.160;2023-04-20T06:21:34;99306.47;;;12.52;88.28
26531;BME280;14201;43.188;24.160;2023-04-20T06:24:01;99297.53;;;12.44;89.48
26531;BME280;14201;43.188;24.160;2023-04-20T06:26:27;99307.91;;;12.42;88.40
26531;BME280;14201;43.188;24.160;2023-04-20T06:28:52;99300.53;;;12.57;87.11
26531;BME280;14201;43.188;24.160;2023-04-20T06:31:18;99301.81;;;12.72;86.60
26531;BME280;14201;43.188;24.160;2023-04-20T06:33:44;99301.63;;;12.66;86.61
26531;BME280;14201;43.188;24.160;2023-04-20T06:36:10;99310.00;;;12.84;85.55
26531;BME280;14201;43.188;24.160;2023-04-20T06:38:36;99307.78;;;12.68;86.43
26531;BME280;14201;43.188;24.160;2023-04-20T06:41:01;99307.28;;;12.81;85.30
26531;BME280;14201;43.188;24.160;2023-04-20T06:43:28;99311.41;;;12.73;85.83
26531;BME280;14201;43.188;24.160;2023-04-20T06:45:54;99308.09;;;12.78;85.33
26531;BME280;14201;43.188;24.160;2023-04-20T06:48:19;99309.59;;;13.02;83.91
26531;BME280;14201;43.188;24.160;2023-04-20T06:50:49;99311.59;;;13.11;84.06
26531;BME280;14201;43.188;24.160;2023-04-20T06:53:15;99309.63;;;13.35;82.38
26531;BME280;14201;43.188;24.160;2023-04-20T06:55:41;99312.19;;;13.32;82.68
26531;BME280;14201;43.188;24.160;2023-04-20T06:58:07;99303.03;;;13.50;81.46
26531;BME280;14201;43.188;24.160;2023-04-20T07:00:34;99312.19;;;13.67;80.42
26531;BME280;14201;43.188;24.160;2023-04-20T07:02:59;99312.56;;;13.83;79.32
26531;BME280;14201;43.188;24.160;2023-04-20T07:05:26;99313.63;;;13.91;80.20
26531;BME280;14201;43.188;24.160;2023-04-20T07:07:55;99314.91;;;14.08;80.27
26531;BME280;14201;43.188;24.160;2023-04-20T07:10:21;99318.00;;;14.30;80.31
26531;BME280;14201;43.188;24.160;2023-04-20T07:12:46;99311.47;;;14.50;78.57
26531;BME280;14201;43.188;24.160;2023-04-20T07:15:13;99307.31;;;14.60;79.54
26531;BME280;14201;43.188;24.160;2023-04-20T07:17:39;99313.16;;;14.89;78.24
26531;BME280;14201;43.188;24.160;2023-04-20T07:20:05;99313.84;;;15.26;77.67
26531;BME280;14201;43.188;24.160;2023-04-20T07:22:33;99310.88;;;15.58;74.35
26531;BME280;14201;43.188;24.160;2023-04-20T07:25:00;99315.66;;;15.81;74.81
26531;BME280;14201;43.188;24.160;2023-04-20T07:27:29;99321.97;;;15.92;71.98
26531;BME280;14201;43.188;24.160;2023-04-20T07:29:57;99304.69;;;16.08;69.45
26531;BME280;14201;43.188;24.160;2023-04-20T07:32:23;99308.28;;;16.14;71.27
26531;BME280;14201;43.188;24.160;2023-04-20T07:34:48;99308.69;;;16.42;67.36
26531;BME280;14201;43.188;24.160;2023-04-20T07:37:14;99303.56;;;16.54;70.13
26531;BME280;14201;43.188;24.160;2023-04-20T07:39:40;99309.13;;;16.79;69.83
26531;BME280;14201;43.188;24.160;2023-04-20T07:42:05;99309.97;;;16.75;65.94
26531;BME280;14201;43.188;24.160;2023-04-20T07:44:31;99309.31;;;16.91;69.11
26531;BME280;14201;43.188;24.160;2023-04-20T07:46:56;99314.59;;;16.93;62.93
26531;BME280;14201;43.188;24.160;2023-04-20T07:49:23;99306.78;;;17.01;64.05
26531;BME280;14201;43.188;24.160;2023-04-20T07:51:48;99304.34;;;17.21;61.69
26531;BME280;14201;43.188;24.160;2023-04-20T07:54:13;99303.41;;;17.16;62.76
26531;BME280;14201;43.188;24.160;2023-04-20T07:56:39;99309.91;;;16.72;63.45
26531;BME280;14201;43.188;24.160;2023-04-20T07:59:05;99313.59;;;16.83;61.58
26531;BME280;14201;43.188;24.160;2023-04-20T08:01:31;99315.56;;;17.03;64.59
26531;BME280;14201;43.188;24.160;2023-04-20T08:03:56;99305.22;;;17.18;62.17
26531;BME280;14201;43.188;24.160;2023-04-20T08:06:22;99311.16;;;17.02;63.83
26531;BME280;14201;43.188;24.160;2023-04-20T08:08:47;99306.13;;;16.48;66.03
26531;BME280;14201;43.188;24.160;2023-04-20T08:11:12;99302.53;;;16.40;65.70
26531;BME280;14201;43.188;24.160;2023-04-20T08:13:39;99298.47;;;16.68;65.22
26531;BME280;14201;43.188;24.160;2023-04-20T08:16:04;99300.84;;;17.20;64.65
26531;BME280;14201;43.188;24.160;2023-04-20T08:18:30;99290.56;;;17.45;61.29
26531;BME280;14201;43.188;24.160;2023-04-20T08:20:55;99289.66;;;17.46;63.46
26531;BME280;14201;43.188;24.160;2023-04-20T08:23:21;99291.53;;;17.59;62.91
26531;BME280;14201;43.188;24.160;2023-04-20T08:25:52;99287.38;;;17.84;63.03
26531;BME280;14201;43.188;24.160;2023-04-20T08:28:17;99283.13;;;18.03;61.82
26531;BME280;14201;43.188;24.160;2023-04-20T08:30:43;99293.00;;;18.43;64.43
26531;BME280;14201;43.188;24.160;2023-04-20T08:33:12;99277.34;;;18.86;63.70
26531;BME280;14201;43.188;24.160;2023-04-20T08:35:38;99284.41;;;18.98;58.49
26531;BME280;14201;43.188;24.160;2023-04-20T08:38:03;99282.66;;;19.00;58.80
26531;BME280;14201;43.188;24.160;2023-04-20T08:40:29;99281.78;;;18.95;57.24
26531;BME280;14201;43.188;24.160;2023-04-20T08:42:55;99283.41;;;18.62;57.20
26531;BME280;14201;43.188;24.160;2023-04-20T08:45:21;99277.78;;;17.94;57.58
26531;BME280;14201;43.188;24.160;2023-04-20T08:47:47;99286.31;;;17.65;59.46
26531;BME280;14201;43.188;24.160;2023-04-20T08:50:13;99284.94;;;18.14;58.03
26531;BME280;14201;43.188;24.160;2023-04-20T08:52:39;99284.97;;;18.21;59.43
26531;BME280;14201;43.188;24.160;2023-04-20T08:55:05;99287.69;;;18.37;58.06
26531;BME280;14201;43.188;24.160;2023-04-20T08:57:34;99281.28;;;17.93;58.66
26531;BME280;14201;43.188;24.160;2023-04-20T09:00:00;99273.22;;;17.75;59.31
26531;BME280;14201;43.188;24.160;2023-04-20T09:02:26;99281.13;;;17.75;58.65
26531;BME280;14201;43.188;24.160;2023-04-20T09:05:03;99283.09;;;18.00;60.19
26531;BME280;14201;43.188;24.160;2023-04-20T09:07:29;99284.13;;;18.27;58.79
26531;BME280;14201;43.188;24.160;2023-04-20T09:09:55;99276.41;;;18.67;58.91
26531;BME280;14201;43.188;24.160;2023-04-20T09:12:21;99273.88;;;18.95;59.48
26531;BME280;14201;43.188;24.160;2023-04-20T09:14:47;99279.19;;;19.04;55.17
26531;BME280;14201;43.188;24.160;2023-04-20T09:17:13;99276.56;;;19.27;56.88
26531;BME280;14201;43.188;24.160;2023-04-20T09:19:39;99275.69;;;19.43;54.36
26531;BME280;14201;43.188;24.160;2023-04-20T09:22:05;99277.41;;;19.17;55.01
26531;BME280;14201;43.188;24.160;2023-04-20T09:24:31;99275.47;;;18.59;53.69
26531;BME280;14201;43.188;24.160;2023-04-20T09:26:57;99276.41;;;18.70;54.61
26531;BME280;14201;43.188;24.160;2023-04-20T09:29:23;99271.94;;;18.57;55.10
26531;BME280;14201;43.188;24.160;2023-04-20T09:31:49;99264.94;;;18.57;56.55
26531;BME280;14201;43.188;24.160;2023-04-20T09:34:15;99268.56;;;18.87;53.75
26531;BME280;14201;43.188;24.160;2023-04-20T09:36:42;99272.13;;;19.15;54.53
26531;BME280;14201;43.188;24.160;2023-04-20T09:39:11;99266.91;;;19.37;55.03
26531;BME280;14201;43.188;24.160;2023-04-20T09:41:39;99258.97;;;19.57;54.37
26531;BME280;14201;43.188;24.160;2023-04-20T09:44:05;99261.59;;;19.67;54.11
26531;BME280;14201;43.188;24.160;2023-04-20T09:46:31;99258.94;;;19.98;56.11
26531;BME280;14201;43.188;24.160;2023-04-20T09:48:58;99254.53;;;19.96;51.23
26531;BME280;14201;43.188;24.160;2023-04-20T09:51:27;99252.72;;;20.21;53.10
26531;BME280;14201;43.188;24.160;2023-04-20T09:53:53;99257.88;;;20.69;49.88
26531;BME280;14201;43.188;24.160;2023-04-20T09:56:19;99246.28;;;20.87;51.41
26531;BME280;14201;43.188;24.160;2023-04-20T09:58:45;99255.31;;;20.38;48.75
26531;BME280;14201;43.188;24.160;2023-04-20T10:01:11;99250.94;;;20.32;51.37
26531;BME280;14201;43.188;24.160;2023-04-20T10:03:36;99243.81;;;20.51;51.16
26531;BME280;14201;43.188;24.160;2023-04-20T10:06:05;99245.56;;;20.46;52.24
26531;BME280;14201;43.188;24.160;2023-04-20T10:08:39;99245.53;;;20.54;51.19
26531;BME280;14201;43.188;24.160;2023-04-20T10:11:08;99241.13;;;20.65;49.16
26531;BME280;14201;43.188;24.160;2023-04-20T10:13:33;99245.44;;;20.83;50.63
26531;BME280;14201;43.188;24.160;2023-04-20T10:15:59;99238.22;;;21.08;50.89
26531;BME280;14201;43.188;24.160;2023-04-20T10:18:25;99243.34;;;21.31;51.60
26531;BME280;14201;43.188;24.160;2023-04-20T10:20:51;99240.56;;;21.51;49.77
26531;BME280;14201;43.188;24.160;2023-04-20T10:23:16;99236.81;;;21.74;49.71
26531;BME280;14201;43.188;24.160;2023-04-20T10:25:42;99236.69;;;21.88;50.09
26531;BME280;14201;43.188;24.160;2023-04-20T10:28:19;99240.97;;;21.98;50.86
26531;BME280;14201;43.188;24.160;2023-04-20T10:30:51;99237.38;;;22.07;50.39
26531;BME280;14201;43.188;24.160;2023-04-20T10:33:17;99238.16;;;22.15;48.45
26531;BME280;14201;43.188;24.160;2023-04-20T10:35:45;99238.84;;;22.34;48.55
26531;BME280;14201;43.188;24.160;2023-04-20T10:38:10;99236.13;;;22.38;47.99
26531;BME280;14201;43.188;24.160;2023-04-20T10:40:36;99226.75;;;22.79;49.42
26531;BME280;14201;43.188;24.160;2023-04-20T10:43:02;99226.19;;;23.19;45.78
26531;BME280;14201;43.188;24.160;2023-04-20T10:45:36;99222.06;;;22.97;48.05
26531;BME280;14201;43.188;24.160;2023-04-20T10:48:08;99226.19;;;23.19;47.23
26531;BME280;14201;43.188;24.160;2023-04-20T10:50:34;99234.97;;;23.25;46.25
26531;BME280;14201;43.188;24.160;2023-04-20T10:53:00;99231.47;;;23.23;45.11
26531;BME280;14201;43.188;24.160;2023-04-20T10:55:25;99228.72;;;23.27;46.50
26531;BME280;14201;43.188;24.160;2023-04-20T10:57:51;99234.41;;;23.04;46.10
26531;BME280;14201;43.188;24.160;2023-04-20T11:00:21;99237.34;;;22.81;46.06
26531;BME280;14201;43.188;24.160;2023-04-20T11:02:47;99235.41;;;22.22;46.49
26531;BME280;14201;43.188;24.160;2023-04-20T11:05:13;99235.94;;;21.73;46.47
26531;BME280;14201;43.188;24.160;2023-04-20T11:07:58;99232.53;;;21.59;47.75
26531;BME280;14201;43.188;24.160;2023-04-20T11:10:38;99227.41;;;21.34;48.28
26531;BME280;14201;43.188;24.160;2023-04-20T11:13:04;99225.59;;;21.42;48.45
26531;BME280;14201;43.188;24.160;2023-04-20T11:15:30;99219.50;;;21.33;46.70
26531;BME280;14201;43.188;24.160;2023-04-20T11:18:04;99226.56;;;21.31;47.36
26531;BME280;14201;43.188;24.160;2023-04-20T11:20:30;99234.59;;;21.20;47.97
26531;BME280;14201;43.188;24.160;2023-04-20T11:22:55;99230.25;;;21.08;48.62
26531;BME280;14201;43.188;24.160;2023-04-20T11:25:24;99223.19;;;21.07;49.27
26531;BME280;14201;43.188;24.160;2023-04-20T11:27:49;99217.94;;;21.04;49.53
26531;BME280;14201;43.188;24.160;2023-04-20T11:30:15;99215.63;;;20.36;50.35
26531;BME280;14201;43.188;24.160;2023-04-20T11:32:40;99207.59;;;20.67;49.96
26531;BME280;14201;43.188;24.160;2023-04-20T11:35:08;99210.00;;;21.04;50.31
26531;BME280;14201;43.188;24.160;2023-04-20T11:38:08;99201.63;;;21.56;50.87
26531;BME280;14201;43.188;24.160;2023-04-20T11:40:27;99192.06;;;22.25;50.63
26531;BME280;14201;43.188;24.160;2023-04-20T11:42:52;99188.38;;;22.38;48.15
26531;BME280;14201;43.188;24.160;2023-04-20T11:45:17;99189.13;;;22.48;48.00
26531;BME280;14201;43.188;24.160;2023-04-20T11:47:43;99185.63;;;22.46;44.03
26531;BME280;14201;43.188;24.160;2023-04-20T11:50:10;99186.22;;;22.67;46.88
26531;BME280;14201;43.188;24.160;2023-04-20T11:52:36;99182.38;;;22.88;46.01
26531;BME280;14201;43.188;24.160;2023-04-20T11:55:01;99175.53;;;22.00;45.40
26531;BME280;14201;43.188;24.160;2023-04-20T11:57:27;99176.72;;;21.73;48.01
26531;BME280;14201;43.188;24.160;2023-04-20T11:59:52;99178.00;;;22.17;47.34
26531;BME280;14201;43.188;24.160;2023-04-20T12:02:17;99180.41;;;22.38;46.50
26531;BME280;14201;43.188;24.160;2023-04-20T12:04:43;99173.28;;;22.40;46.68
26531;BME280;14201;43.188;24.160;2023-04-20T12:07:08;99173.53;;;22.19;46.99
26531;BME280;14201;43.188;24.160;2023-04-20T12:09:34;99172.94;;;21.98;46.08
26531;BME280;14201;43.188;24.160;2023-04-20T12:12:03;99172.00;;;22.01;48.49
26531;BME280;14201;43.188;24.160;2023-04-20T12:14:28;99169.28;;;22.07;46.03
26531;BME280;14201;43.188;24.160;2023-04-20T12:16:54;99166.66;;;22.04;45.95
26531;BME280;14201;43.188;24.160;2023-04-20T12:19:19;99169.25;;;22.10;46.49
26531;BME280;14201;43.188;24.160;2023-04-20T12:21:45;99171.91;;;22.10;46.15
26531;BME280;14201;43.188;24.160;2023-04-20T12:24:12;99168.44;;;22.02;46.66
26531;BME280;14201;43.188;24.160;2023-04-20T12:26:37;99147.97;;;22.12;47.09
26531;BME280;14201;43.188;24.160;2023-04-20T12:29:03;99160.22;;;22.27;45.51
26531;BME280;14201;43.188;24.160;2023-04-20T12:31:28;99160.09;;;22.37;45.99
26531;BME280;14201;43.188;24.160;2023-04-20T12:33:54;99157.16;;;22.56;45.50
26531;BME280;14201;43.188;24.160;2023-04-20T12:36:19;99144.50;;;22.75;46.13
26531;BME280;14201;43.188;24.160;2023-04-20T12:38:44;99142.13;;;23.15;45.84
26531;BME280;14201;43.188;24.160;2023-04-20T12:41:13;99143.97;;;22.50;43.58
26531;BME280;14201;43.188;24.160;2023-04-20T12:43:39;99144.63;;;22.00;44.59
26531;BME280;14201;43.188;24.160;2023-04-20T12:46:05;99136.16;;;21.68;45.26